createdAt,value
2023-01-15T00:02:25.016Z,99225.25
2023-01-15T00:04:52.438Z,99222.25
2023-01-15T00:07:19.777Z,99214.81
2023-01-15T00:09:46.744Z,99211.56
2023-01-15T00:12:14.019Z,99208.34
2023-01-15T00:14:43.466Z,99203.13
2023-01-15T00:17:10.830Z,99201.66
2023-01-15T00:19:40.010Z,99200.66
2023-01-15T00:22:11.371Z,99195.94
2023-01-15T00:24:59.375Z,99203.13
2023-01-15T00:27:40.771Z,99190.13
2023-01-15T00:30:12.252Z,99187.63
2023-01-15T00:32:43.530Z,99189.13
2023-01-15T00:35:18.497Z,99192.09
2023-01-15T00:37:46.129Z,99185.06
2023-01-15T00:40:14.625Z,99183.84
2023-01-15T00:42:48.236Z,99191.28
2023-01-15T00:45:21.774Z,99188.03
2023-01-15T00:47:51.747Z,99183.03
2023-01-15T00:50:18.926Z,99183.75
2023-01-15T00:52:46.273Z,99171.56
2023-01-15T00:55:13.373Z,99183.78
2023-01-15T00:57:41.286Z,99176.34
2023-01-15T01:00:12.403Z,99175.84
2023-01-15T01:02:40.384Z,99172.84
2023-01-15T01:05:08.560Z,99175.13
2023-01-15T01:07:36.850Z,99172.63
2023-01-15T01:10:04.088Z,99168.13
2023-01-15T01:12:31.486Z,99158.91
2023-01-15T01:14:58.487Z,99160.41
2023-01-15T01:17:28.139Z,99171.13
2023-01-15T01:19:55.136Z,99153.66
2023-01-15T01:22:22.502Z,99165.16
2023-01-15T01:24:49.708Z,99157.66
2023-01-15T01:27:19.025Z,99145.22
2023-01-15T01:29:46.010Z,99138.47
2023-01-15T01:32:13.740Z,99132.72
2023-01-15T01:34:40.788Z,99132.97
2023-01-15T01:37:08.231Z,99121.28
2023-01-15T01:39:35.266Z,99118.28
2023-01-15T01:42:02.578Z,99108.06
2023-01-15T01:44:32.409Z,99114.81
2023-01-15T01:47:09.868Z,99109.56
2023-01-15T01:49:40.232Z,99110.31
2023-01-15T01:52:10.940Z,99117.31
2023-01-15T01:54:39.343Z,99097.63
2023-01-15T01:57:08.843Z,99088.41
2023-01-15T01:59:37.588Z,99091.13
2023-01-15T02:02:05.811Z,99084.41
2023-01-15T02:04:33.640Z,99079.16
2023-01-15T02:07:04.427Z,99063.47
2023-01-15T02:09:31.943Z,99068.69
2023-01-15T02:12:22.857Z,99083.41
2023-01-15T02:15:01.300Z,99064.47
2023-01-15T02:17:56.178Z,99071.44
2023-01-15T02:20:32.514Z,99051.47
2023-01-15T02:23:18.142Z,99057.47
2023-01-15T02:26:10.024Z,99064.44
2023-01-15T02:28:40.836Z,99057.75
2023-01-15T02:31:17.015Z,99050.00
2023-01-15T02:34:10.859Z,99051.75
2023-01-15T02:36:43.435Z,99045.50
2023-01-15T02:39:24.003Z,99045.00
2023-01-15T02:41:54.154Z,99036.53
2023-01-15T02:44:25.025Z,99032.78
2023-01-15T02:46:56.581Z,99033.03
2023-01-15T02:49:29.463Z,99040.25
2023-01-15T02:52:39.570Z,99030.53
2023-01-15T02:55:13.091Z,99029.03
2023-01-15T02:57:48.210Z,99022.81
2023-01-15T03:00:21.319Z,99027.81
2023-01-15T03:03:31.241Z,99020.56
2023-01-15T03:06:13.528Z,99024.56
2023-01-15T03:08:41.082Z,99020.06
2023-01-15T03:11:11.730Z,99011.34
2023-01-15T03:14:09.376Z,98998.34
2023-01-15T03:16:47.703Z,98999.88
2023-01-15T03:19:41.682Z,99000.84
2023-01-15T03:22:36.185Z,99005.34
2023-01-15T03:25:05.948Z,98985.66
2023-01-15T03:27:40.379Z,98974.16
2023-01-15T03:30:21.591Z,98973.16
2023-01-15T03:32:53.750Z,98969.44
2023-01-15T03:35:46.280Z,98958.44
2023-01-15T03:38:24.384Z,98952.47
2023-01-15T03:41:15.742Z,98954.44
2023-01-15T03:44:05.302Z,98955.44
2023-01-15T03:46:59.100Z,98961.16
2023-01-15T03:49:39.665Z,98951.69
2023-01-15T03:52:33.263Z,98949.72
2023-01-15T03:55:20.565Z,98953.44
2023-01-15T03:58:03.187Z,98957.19
2023-01-15T04:01:07.924Z,98944.97
2023-01-15T04:03:37.622Z,98952.72
2023-01-15T04:06:07.706Z,98955.47
2023-01-15T04:08:39.841Z,98966.94
2023-01-15T04:11:07.685Z,98973.16
2023-01-15T04:13:41.860Z,98971.94
2023-01-15T04:16:28.809Z,98975.91
2023-01-15T04:18:58.657Z,98974.94
2023-01-15T04:21:27.144Z,98963.69
2023-01-15T04:23:54.147Z,98956.22
2023-01-15T04:26:24.045Z,98952.72
2023-01-15T04:28:51.029Z,98946.75
2023-01-15T04:31:20.965Z,98944.25
2023-01-15T04:33:47.976Z,98945.25
2023-01-15T04:36:15.250Z,98929.78
2023-01-15T04:38:42.304Z,98932.53
2023-01-15T04:41:29.093Z,98928.03
2023-01-15T04:44:08.657Z,98931.28
2023-01-15T04:46:39.695Z,98928.81
2023-01-15T04:49:10.489Z,98933.03
2023-01-15T04:51:39.536Z,98929.78
2023-01-15T04:54:08.175Z,98923.81
2023-01-15T04:56:41.886Z,98930.28
2023-01-15T04:59:09.618Z,98933.28
2023-01-15T05:01:37.955Z,98924.06
2023-01-15T05:04:05.713Z,98926.03
2023-01-15T05:06:33.116Z,98928.53
2023-01-15T05:09:04.121Z,98918.81
2023-01-15T05:11:34.675Z,98920.81
2023-01-15T05:14:01.633Z,98914.56
2023-01-15T05:16:29.983Z,98914.31
2023-01-15T05:19:00.036Z,98909.31
2023-01-15T05:21:31.895Z,98910.03
2023-01-15T05:24:03.287Z,98910.03
2023-01-15T05:26:32.660Z,98905.56
2023-01-15T05:29:00.784Z,98908.56
2023-01-15T05:31:29.327Z,98905.06
2023-01-15T05:33:57.310Z,98904.53
2023-01-15T05:36:28.197Z,98910.53
2023-01-15T05:38:55.396Z,98911.75
2023-01-15T05:41:42.098Z,98910.25
2023-01-15T05:44:11.597Z,98917.47
2023-01-15T05:46:40.447Z,98919.47
2023-01-15T05:49:09.483Z,98922.47
2023-01-15T05:51:38.149Z,98915.50
2023-01-15T05:54:06.794Z,98918.72
2023-01-15T05:56:38.315Z,98920.47
2023-01-15T05:59:06.743Z,98924.19
2023-01-15T06:01:36.739Z,98921.44
2023-01-15T06:04:06.146Z,98911.22
2023-01-15T06:06:34.438Z,98901.47
2023-01-15T06:09:01.647Z,98909.94
2023-01-15T06:11:29.143Z,98928.91
2023-01-15T06:13:56.156Z,98953.38
2023-01-15T06:16:26.083Z,98980.56
2023-01-15T06:18:53.641Z,98970.59
2023-01-15T06:21:20.935Z,98951.13
2023-01-15T06:23:48.002Z,98950.38
2023-01-15T06:26:18.661Z,98945.13
2023-01-15T06:28:46.611Z,98947.16
2023-01-15T06:31:16.484Z,98955.88
2023-01-15T06:33:44.125Z,98947.88
2023-01-15T06:36:18.128Z,98951.13
2023-01-15T06:38:45.465Z,98954.38
2023-01-15T06:41:34.423Z,98942.66
2023-01-15T06:44:19.993Z,98946.16
2023-01-15T06:47:07.737Z,98938.16
2023-01-15T06:49:36.670Z,98923.44
2023-01-15T06:52:05.132Z,98930.19
2023-01-15T06:54:33.132Z,98932.94
2023-01-15T06:57:00.497Z,98919.19
2023-01-15T06:59:27.656Z,98925.19
2023-01-15T07:01:57.570Z,98928.47
2023-01-15T07:04:24.936Z,98913.72
2023-01-15T07:06:54.700Z,98908.22
2023-01-15T07:09:21.847Z,98921.19
2023-01-15T07:11:52.141Z,98916.97
2023-01-15T07:14:24.808Z,98908.03
2023-01-15T07:16:52.793Z,98911.75
2023-01-15T07:19:23.172Z,98902.03
2023-01-15T07:21:52.682Z,98913.78
2023-01-15T07:24:22.039Z,98901.06
2023-01-15T07:26:49.590Z,98892.84
2023-01-15T07:29:16.749Z,98885.38
2023-01-15T07:31:44.323Z,98873.91
2023-01-15T07:34:11.366Z,98881.16
2023-01-15T07:36:38.960Z,98882.16
2023-01-15T07:39:07.671Z,98884.91
2023-01-15T07:42:01.596Z,98890.66
2023-01-15T07:44:50.746Z,98889.41
2023-01-15T07:47:43.548Z,98892.41
2023-01-15T07:50:14.242Z,98898.63
2023-01-15T07:52:41.753Z,98895.41
2023-01-15T07:55:10.254Z,98889.66
2023-01-15T07:57:38.107Z,98876.22
2023-01-15T08:00:09.914Z,98855.75
2023-01-15T08:02:42.562Z,98848.53
2023-01-15T08:05:11.659Z,98846.81
2023-01-15T08:07:40.648Z,98832.84
2023-01-15T08:10:10.453Z,98841.81
2023-01-15T08:12:57.507Z,98854.00
2023-01-15T08:15:25.918Z,98848.06
2023-01-15T08:17:53.631Z,98836.59
2023-01-15T08:20:23.762Z,98834.31
2023-01-15T08:22:50.824Z,98841.56
2023-01-15T08:25:23.542Z,98840.06
2023-01-15T08:27:51.197Z,98834.59
2023-01-15T08:30:23.059Z,98834.34
2023-01-15T08:32:52.753Z,98834.34
2023-01-15T08:35:22.692Z,98832.81
2023-01-15T08:37:52.127Z,98825.34
2023-01-15T08:40:19.635Z,98827.59
2023-01-15T08:42:46.665Z,98834.31
2023-01-15T08:45:14.292Z,98836.78
2023-01-15T08:47:41.503Z,98829.06
2023-01-15T08:50:10.140Z,98835.56
2023-01-15T08:52:38.623Z,98835.06
2023-01-15T08:55:07.011Z,98833.06
2023-01-15T08:57:34.184Z,98829.34
2023-01-15T09:00:04.947Z,98836.81
2023-01-15T09:02:32.112Z,98833.06
2023-01-15T09:04:59.621Z,98849.53
2023-01-15T09:07:26.695Z,98849.78
2023-01-15T09:09:54.294Z,98855.75
2023-01-15T09:12:24.861Z,98846.53
2023-01-15T09:14:56.685Z,98846.78
2023-01-15T09:17:32.972Z,98845.28
2023-01-15T09:20:03.341Z,98847.28
2023-01-15T09:22:31.147Z,98839.03
2023-01-15T09:25:01.107Z,98831.81
2023-01-15T09:27:28.795Z,98856.50
2023-01-15T09:29:56.813Z,98852.97
2023-01-15T09:32:26.917Z,98860.19
2023-01-15T09:34:56.399Z,98859.94
2023-01-15T09:37:23.398Z,98848.00
2023-01-15T09:39:51.491Z,98843.50
2023-01-15T09:42:21.495Z,98848.97
2023-01-15T09:45:05.122Z,98842.25
2023-01-15T09:48:06.372Z,98852.47
2023-01-15T09:50:55.294Z,98842.97
2023-01-15T09:53:40.901Z,98841.25
2023-01-15T09:56:20.731Z,98839.97
2023-01-15T09:58:48.091Z,98831.03
2023-01-15T10:01:20.783Z,98833.50
2023-01-15T10:03:54.561Z,98831.22
2023-01-15T10:06:27.389Z,98823.50
2023-01-15T10:09:31.431Z,98826.25
2023-01-15T10:12:32.597Z,98839.47
2023-01-15T10:15:10.858Z,98821.97
2023-01-15T10:17:46.479Z,98834.19
2023-01-15T10:20:17.908Z,98841.16
2023-01-15T10:23:16.996Z,98840.91
2023-01-15T10:25:55.253Z,98842.88
2023-01-15T10:28:29.872Z,98827.19
2023-01-15T10:31:08.141Z,98834.66
2023-01-15T10:34:00.103Z,98839.16
2023-01-15T10:36:43.329Z,98841.91
2023-01-15T10:39:34.624Z,98824.94
2023-01-15T10:42:23.230Z,98815.94
2023-01-15T10:45:04.977Z,98815.97
2023-01-15T10:47:40.477Z,98808.72
2023-01-15T10:50:23.548Z,98785.50
2023-01-15T10:52:56.720Z,98802.69
2023-01-15T10:55:38.517Z,98789.00
2023-01-15T10:58:28.236Z,98775.28
2023-01-15T11:01:03.495Z,98778.31
2023-01-15T11:03:43.296Z,98765.59
2023-01-15T11:06:16.365Z,98753.38
2023-01-15T11:09:08.492Z,98749.16
2023-01-15T11:12:00.981Z,98750.41
2023-01-15T11:14:53.830Z,98745.19
2023-01-15T11:17:41.724Z,98740.94
2023-01-15T11:20:36.964Z,98739.22
2023-01-15T11:23:35.213Z,98735.72
2023-01-15T11:26:03.562Z,98734.25
2023-01-15T11:28:40.722Z,98734.75
2023-01-15T11:31:09.309Z,98731.50
2023-01-15T11:33:37.591Z,98725.53
2023-01-15T11:36:08.129Z,98731.00
2023-01-15T11:38:47.370Z,98732.03
2023-01-15T11:41:22.573Z,98732.28
2023-01-15T11:44:17.173Z,98731.50
2023-01-15T11:47:05.978Z,98728.03
2023-01-15T11:49:51.771Z,98725.53
2023-01-15T11:52:24.404Z,98725.03
2023-01-15T11:54:55.491Z,98725.53
2023-01-15T11:57:33.949Z,98720.53
2023-01-15T12:00:04.327Z,98725.53
2023-01-15T12:02:40.330Z,98722.75
2023-01-15T12:05:17.137Z,98714.00
2023-01-15T12:07:45.447Z,98713.78
2023-01-15T12:10:44.953Z,98718.28
2023-01-15T12:13:38.250Z,98719.47
2023-01-15T12:16:27.008Z,98699.75
2023-01-15T12:19:28.221Z,98692.03
2023-01-15T12:21:58.467Z,98685.81
2023-01-15T12:24:43.729Z,98677.56
2023-01-15T12:27:23.095Z,98689.53
2023-01-15T12:30:19.590Z,98672.31
2023-01-15T12:32:58.351Z,98676.59
2023-01-15T12:35:36.253Z,98684.56
2023-01-15T12:38:19.167Z,98680.31
2023-01-15T12:40:57.982Z,98683.31
2023-01-15T12:43:45.520Z,98673.06
2023-01-15T12:46:19.963Z,98680.81
2023-01-15T12:48:57.290Z,98672.06
2023-01-15T12:51:39.017Z,98660.81
2023-01-15T12:54:12.389Z,98683.25
2023-01-15T12:56:47.717Z,98678.72
2023-01-15T12:59:30.565Z,98672.97
2023-01-15T13:02:41.089Z,98672.44
2023-01-15T13:05:22.599Z,98666.25
2023-01-15T13:08:24.842Z,98654.75
2023-01-15T13:10:53.230Z,98660.50
2023-01-15T13:13:35.329Z,98652.75
2023-01-15T13:16:21.388Z,98643.72
2023-01-15T13:19:16.242Z,98652.19
2023-01-15T13:21:52.988Z,98657.19
2023-01-15T13:24:50.886Z,98658.19
2023-01-15T13:27:36.413Z,98655.94
2023-01-15T13:30:12.610Z,98658.41
2023-01-15T13:32:48.630Z,98648.22
2023-01-15T13:35:21.869Z,98655.72
2023-01-15T13:37:55.165Z,98650.00
2023-01-15T13:40:36.634Z,98648.75
2023-01-15T13:43:07.077Z,98652.00
2023-01-15T13:45:49.852Z,98642.00
2023-01-15T13:48:24.094Z,98640.22
2023-01-15T13:50:57.878Z,98647.19
2023-01-15T13:53:37.764Z,98647.19
2023-01-15T13:56:09.652Z,98652.69
2023-01-15T13:59:01.489Z,98649.44
2023-01-15T14:01:33.672Z,98652.19
2023-01-15T14:04:13.361Z,98651.44
2023-01-15T14:06:46.400Z,98660.41
2023-01-15T14:09:23.078Z,98667.66
2023-01-15T14:12:21.793Z,98676.41
2023-01-15T14:15:17.103Z,98672.38
2023-01-15T14:18:14.002Z,98679.16
2023-01-15T14:20:59.585Z,98683.41
2023-01-15T14:23:27.212Z,98677.41
2023-01-15T14:26:31.213Z,98687.66
2023-01-15T14:29:16.078Z,98691.41
2023-01-15T14:32:00.775Z,98694.38
2023-01-15T14:34:35.071Z,98696.63
2023-01-15T14:37:25.201Z,98709.09
2023-01-15T14:40:02.302Z,98706.13
2023-01-15T14:42:56.743Z,98717.59
2023-01-15T14:45:31.821Z,98712.13
2023-01-15T14:48:02.230Z,98717.59
2023-01-15T14:50:41.082Z,98719.09
2023-01-15T14:53:12.060Z,98725.81
2023-01-15T14:55:47.824Z,98731.56
2023-01-15T14:58:35.339Z,98731.78
2023-01-15T15:01:38.248Z,98735.25
2023-01-15T15:04:10.385Z,98737.22
2023-01-15T15:06:47.654Z,98749.47
2023-01-15T15:09:28.065Z,98749.94
2023-01-15T15:12:19.595Z,98748.44
2023-01-15T15:14:59.563Z,98740.22
2023-01-15T15:17:55.317Z,98755.66
2023-01-15T15:20:51.425Z,98746.44
2023-01-15T15:23:36.850Z,98759.13
2023-01-15T15:26:07.114Z,98770.13
2023-01-15T15:28:34.847Z,98783.09
2023-01-15T15:31:03.078Z,98802.03
2023-01-15T15:33:39.333Z,98788.31
2023-01-15T15:36:10.173Z,98787.81
2023-01-15T15:38:40.834Z,98781.59
2023-01-15T15:41:12.739Z,98774.06
2023-01-15T15:44:16.311Z,98777.81
2023-01-15T15:47:09.205Z,98792.78
2023-01-15T15:49:45.125Z,98800.06
2023-01-15T15:52:20.908Z,98807.78
2023-01-15T15:54:59.025Z,98795.78
2023-01-15T15:57:31.917Z,98797.81
2023-01-15T16:00:03.206Z,98801.53
2023-01-15T16:02:38.759Z,98802.53
2023-01-15T16:05:24.483Z,98798.50
2023-01-15T16:07:55.534Z,98793.03
2023-01-15T16:10:26.872Z,98801.25
2023-01-15T16:13:03.497Z,98805.97
2023-01-15T16:15:36.889Z,98805.47
2023-01-15T16:18:06.049Z,98818.72
2023-01-15T16:20:35.149Z,98823.19
2023-01-15T16:23:05.468Z,98834.88
2023-01-15T16:25:37.155Z,98835.38
2023-01-15T16:28:23.423Z,98854.59
2023-01-15T16:30:59.944Z,98869.34
2023-01-15T16:33:29.477Z,98891.03
2023-01-15T16:35:59.894Z,98895.91
2023-01-15T16:38:28.238Z,98908.56
2023-01-15T16:40:56.450Z,98904.25
2023-01-15T16:43:26.591Z,98908.00
2023-01-15T16:46:00.282Z,98883.53
2023-01-15T16:48:46.036Z,98901.75
2023-01-15T16:51:27.962Z,98894.78
2023-01-15T16:53:55.597Z,98898.78
2023-01-15T16:56:35.769Z,98892.78
2023-01-15T16:59:16.838Z,98899.00
2023-01-15T17:01:48.793Z,98904.25
2023-01-15T17:04:30.186Z,98900.00
2023-01-15T17:07:02.391Z,98903.03
2023-01-15T17:09:37.604Z,98900.78
2023-01-15T17:12:18.413Z,98906.78
2023-01-15T17:14:46.045Z,98916.53
2023-01-15T17:17:24.361Z,98912.03
2023-01-15T17:19:54.061Z,98919.53
2023-01-15T17:22:22.039Z,98917.00
2023-01-15T17:24:55.367Z,98921.00
2023-01-15T17:27:27.586Z,98915.25
2023-01-15T17:29:57.697Z,98915.78
2023-01-15T17:32:36.694Z,98918.78
2023-01-15T17:35:05.289Z,98909.78
2023-01-15T17:37:33.389Z,98916.56
2023-01-15T17:40:01.657Z,98914.56
2023-01-15T17:42:29.959Z,98907.09
2023-01-15T17:44:58.198Z,98923.34
2023-01-15T17:47:27.778Z,98927.56
2023-01-15T17:49:56.379Z,98929.84
2023-01-15T17:52:25.091Z,98927.34
2023-01-15T17:55:11.636Z,98928.34
2023-01-15T17:58:00.504Z,98937.09
2023-01-15T18:00:49.746Z,98929.88
2023-01-15T18:03:40.699Z,98943.13
2023-01-15T18:06:14.956Z,98941.63
2023-01-15T18:08:46.959Z,98945.88
2023-01-15T18:11:15.063Z,98947.63
2023-01-15T18:13:43.215Z,98942.63
2023-01-15T18:16:14.747Z,98952.84
2023-01-15T18:18:43.798Z,98953.63
2023-01-15T18:21:12.066Z,98954.88
2023-01-15T18:23:40.115Z,98958.16
2023-01-15T18:26:09.873Z,98965.63
2023-01-15T18:28:45.738Z,98961.63
2023-01-15T18:31:13.868Z,98976.13
2023-01-15T18:33:45.180Z,98973.88
2023-01-15T18:36:15.479Z,98977.16
2023-01-15T18:38:44.513Z,98967.91
2023-01-15T18:41:33.667Z,98976.16
2023-01-15T18:44:32.408Z,98974.91
2023-01-15T18:47:05.432Z,98973.91
2023-01-15T18:49:34.055Z,98979.22
2023-01-15T18:52:24.202Z,98980.19
2023-01-15T18:54:52.653Z,98989.91
2023-01-15T18:57:21.285Z,99001.16
2023-01-15T18:59:49.964Z,98998.16
2023-01-15T19:02:21.294Z,99006.13
2023-01-15T19:04:49.695Z,99010.16
2023-01-15T19:07:18.483Z,99017.88
2023-01-15T19:09:46.681Z,99015.88
2023-01-15T19:12:17.710Z,99016.91
2023-01-15T19:15:04.202Z,99025.88
2023-01-15T19:17:52.661Z,99030.66
2023-01-15T19:20:20.680Z,99033.66
2023-01-15T19:23:03.399Z,99024.91
2023-01-15T19:25:49.917Z,99034.63
2023-01-15T19:28:21.880Z,99044.34
2023-01-15T19:31:10.506Z,99047.81
2023-01-15T19:33:39.740Z,99046.09
2023-01-15T19:36:09.265Z,99052.81
2023-01-15T19:38:39.871Z,99047.56
2023-01-15T19:41:33.079Z,99043.34
2023-01-15T19:44:19.524Z,99034.09
2023-01-15T19:47:06.430Z,99047.59
2023-01-15T19:49:56.375Z,99041.06
2023-01-15T19:52:51.420Z,99027.81
2023-01-15T19:55:24.567Z,99034.59
2023-01-15T19:58:01.791Z,99036.59
2023-01-15T20:00:32.257Z,99041.59
2023-01-15T20:03:01.911Z,99048.34
2023-01-15T20:05:32.385Z,99044.56
2023-01-15T20:08:00.287Z,99038.38
2023-01-15T20:10:30.126Z,99045.38
2023-01-15T20:13:17.139Z,99044.38
2023-01-15T20:15:52.554Z,99036.91
2023-01-15T20:18:23.821Z,99042.16
2023-01-15T20:21:00.271Z,99042.16
2023-01-15T20:23:29.483Z,99040.91
2023-01-15T20:26:08.751Z,99045.69
2023-01-15T20:28:38.718Z,99042.94
2023-01-15T20:31:06.752Z,99036.41
2023-01-15T20:33:34.727Z,99038.41
2023-01-15T20:36:04.957Z,99035.91
2023-01-15T20:38:55.225Z,99040.13
2023-01-15T20:41:44.210Z,99036.63
2023-01-15T20:44:30.674Z,99033.41
2023-01-15T20:46:59.435Z,99032.13
2023-01-15T20:49:34.072Z,99023.63
2023-01-15T20:52:05.039Z,99038.66
2023-01-15T20:54:35.600Z,99027.41
2023-01-15T20:57:04.258Z,99028.41
2023-01-15T20:59:32.296Z,99026.91
2023-01-15T21:02:03.152Z,99026.19
2023-01-15T21:04:31.432Z,99030.16
2023-01-15T21:07:01.343Z,99018.19
2023-01-15T21:09:32.035Z,99020.69
2023-01-15T21:11:59.770Z,99010.47
2023-01-15T21:14:28.599Z,99003.47
2023-01-15T21:16:56.105Z,99008.47
2023-01-15T21:19:24.964Z,99007.50
2023-01-15T21:21:53.421Z,99010.75
2023-01-15T21:24:21.288Z,99007.50
2023-01-15T21:26:49.231Z,99007.75
2023-01-15T21:29:16.525Z,99005.97
2023-01-15T21:31:44.260Z,99008.22
2023-01-15T21:34:12.241Z,98996.25
2023-01-15T21:36:42.815Z,99000.47
2023-01-15T21:39:15.247Z,98998.75
2023-01-15T21:42:01.820Z,98997.00
2023-01-15T21:44:32.959Z,99006.75
2023-01-15T21:47:03.365Z,99004.00
2023-01-15T21:49:33.214Z,98999.53
2023-01-15T21:52:02.297Z,98990.78
2023-01-15T21:54:30.048Z,98999.53
2023-01-15T21:56:58.467Z,99005.03
2023-01-15T21:59:26.244Z,99008.53
2023-01-15T22:01:54.919Z,99004.31
2023-01-15T22:04:25.743Z,98999.31
2023-01-15T22:06:54.216Z,99004.56
2023-01-15T22:09:22.456Z,99007.31
2023-01-15T22:11:52.408Z,99008.06
2023-01-15T22:14:22.849Z,98997.34
2023-01-15T22:16:55.924Z,98996.59
2023-01-15T22:19:25.930Z,98993.84
2023-01-15T22:21:56.865Z,98992.09
2023-01-15T22:24:29.307Z,98994.59
2023-01-15T22:26:57.616Z,98996.56
2023-01-15T22:29:38.328Z,98987.84
2023-01-15T22:32:06.925Z,98978.84
2023-01-15T22:34:34.048Z,98979.84
2023-01-15T22:37:01.936Z,98976.34
2023-01-15T22:39:29.450Z,98966.38
2023-01-15T22:42:15.344Z,98971.63
2023-01-15T22:44:45.444Z,98968.63
2023-01-15T22:47:13.336Z,98965.38
2023-01-15T22:49:40.467Z,98963.41
2023-01-15T22:52:07.800Z,98963.16
2023-01-15T22:54:35.026Z,98971.16
2023-01-15T22:57:02.433Z,98962.94
2023-01-15T22:59:32.528Z,98961.91
2023-01-15T23:02:00.224Z,98955.72
2023-01-15T23:04:27.637Z,98952.97
2023-01-15T23:06:55.129Z,98954.94
2023-01-15T23:09:23.463Z,98955.72
2023-01-15T23:11:54.145Z,98953.47
2023-01-15T23:14:22.257Z,98955.97
2023-01-15T23:16:50.281Z,98947.22
2023-01-15T23:19:18.906Z,98930.78
2023-01-15T23:21:46.402Z,98931.78
2023-01-15T23:24:16.111Z,98926.28
2023-01-15T23:26:45.706Z,98931.28
2023-01-15T23:29:12.815Z,98926.28
2023-01-15T23:31:40.141Z,98922.31
2023-01-15T23:34:07.231Z,98918.06
2023-01-15T23:36:34.591Z,98913.06
2023-01-15T23:39:01.699Z,98915.06
2023-01-15T23:41:47.595Z,98919.31
2023-01-15T23:44:38.346Z,98926.03
2023-01-15T23:47:07.198Z,98922.81
2023-01-15T23:49:37.359Z,98933.28
2023-01-15T23:52:05.339Z,98926.28
2023-01-15T23:54:32.769Z,98927.53
2023-01-15T23:57:01.601Z,98928.56
2023-01-15T23:59:29.066Z,98925.56
